Time;durP1;ratioP1;P1;durP2;ratioP2;P2;SDS_P1;SDS_P2;PMS_P1;PMS_P2;Temp;Humidity;BMP_temperature;BMP_pressure;BME280_temperature;BME280_humidity;BME280_pressure;Samples;Min_cycle;Max_cycle;Signal;HPM_P1;HPM_P2
2023/09/04 00:00:44;;;;;;;8.17;4.40;;;13.00;99.90;;;;;;5114579;28;20196;-66
2023/09/04 00:03:09;;;;;;;8.63;4.33;;;13.00;99.90;;;;;;5114569;28;20245;-66
2023/09/04 00:05:35;;;;;;;7.87;4.47;;;13.00;99.90;;;;;;5114259;28;20300;-66
2023/09/04 00:08:01;;;;;;;9.23;4.53;;;12.90;99.90;;;;;;5113510;28;20227;-66
2023/09/04 00:10:27;;;;;;;9.87;4.53;;;12.90;99.90;;;;;;5114353;28;20185;-66
2023/09/04 00:12:52;;;;;;;8.43;4.33;;;12.80;99.90;;;;;;5114327;28;20173;-66
2023/09/04 00:15:18;;;;;;;9.53;4.80;;;12.80;99.90;;;;;;5114195;28;20197;-66
2023/09/04 00:17:49;;;;;;;6.40;4.33;;;12.70;99.90;;;;;;5112633;28;20183;-66
2023/09/04 00:20:15;;;;;;;9.73;4.17;;;12.70;99.90;;;;;;5114376;28;20169;-66
2023/09/04 00:22:40;;;;;;;6.13;4.40;;;12.70;99.90;;;;;;5114086;28;20184;-66
2023/09/04 00:25:06;;;;;;;9.43;4.77;;;12.60;99.90;;;;;;5114070;28;20257;-66
2023/09/04 00:27:31;;;;;;;7.00;4.70;;;12.60;99.90;;;;;;5113275;28;20343;-66
2023/09/04 00:29:57;;;;;;;15.67;5.13;;;12.60;99.90;;;;;;5113833;28;20184;-66
2023/09/04 00:32:23;;;;;;;9.23;4.63;;;12.50;99.90;;;;;;5110044;28;20185;-67
2023/09/04 00:34:48;;;;;;;10.20;4.90;;;12.50;99.90;;;;;;5094074;28;20272;-66
2023/09/04 00:37:14;;;;;;;8.57;4.40;;;12.40;99.90;;;;;;5092930;28;20184;-66
2023/09/04 00:39:39;;;;;;;8.53;4.63;;;12.40;99.90;;;;;;5093256;28;20264;-66
2023/09/04 00:42:05;;;;;;;7.27;4.33;;;12.40;99.90;;;;;;5093233;28;20197;-66
2023/09/04 00:44:31;;;;;;;13.57;5.00;;;12.30;99.90;;;;;;5093384;28;20233;-66
2023/09/04 00:46:58;;;;;;;8.80;5.17;;;12.30;99.90;;;;;;5092859;28;20186;-66
2023/09/04 00:49:24;;;;;;;10.23;5.27;;;12.30;99.90;;;;;;5093073;28;20225;-66
2023/09/04 00:51:49;;;;;;;8.20;4.70;;;12.30;99.90;;;;;;5092943;28;20647;-66
2023/09/04 00:54:16;;;;;;;12.20;4.70;;;12.30;99.90;;;;;;5093103;28;20190;-66
2023/09/04 00:56:42;;;;;;;6.97;5.00;;;12.30;99.90;;;;;;5092831;28;20181;-66
2023/09/04 00:59:08;;;;;;;12.27;5.27;;;12.30;99.90;;;;;;5092822;28;20716;-66
2023/09/04 01:01:35;;;;;;;15.03;5.60;;;12.30;99.90;;;;;;5093005;28;20261;-67
2023/09/04 01:04:01;;;;;;;8.67;5.33;;;12.30;99.90;;;;;;5093156;28;20231;-66
2023/09/04 01:06:26;;;;;;;10.50;6.13;;;12.30;99.90;;;;;;5074560;28;20721;-66
2023/09/04 01:08:52;;;;;;;11.33;5.47;;;12.40;99.90;;;;;;5092180;28;20205;-66
2023/09/04 01:11:32;;;;;;;12.57;5.00;;;12.30;99.90;;;;;;5092792;28;20545;-66
2023/09/04 01:13:59;;;;;;;11.20;6.00;;;12.40;99.90;;;;;;5092598;28;20193;-66
2023/09/04 01:16:25;;;;;;;11.33;5.80;;;12.40;99.90;;;;;;5092739;28;20174;-66
2023/09/04 01:18:51;;;;;;;9.23;5.60;;;12.30;99.90;;;;;;5091962;28;20217;-66
2023/09/04 01:21:17;;;;;;;7.63;5.37;;;12.40;99.90;;;;;;5092747;28;20216;-66
2023/09/04 01:23:43;;;;;;;9.53;5.40;;;12.40;99.90;;;;;;5092847;28;20552;-66
2023/09/04 01:26:36;;;;;;;7.80;5.50;;;12.40;99.90;;;;;;5092640;28;20178;-66
2023/09/04 01:29:10;;;;;;;9.97;5.07;;;12.40;99.90;;;;;;5091687;28;20197;-66
2023/09/04 01:31:43;;;;;;;8.63;4.67;;;12.40;99.90;;;;;;5092297;28;20252;-66
2023/09/04 01:34:11;;;;;;;7.30;4.50;;;12.40;99.90;;;;;;5092376;28;20194;-66
2023/09/04 01:36:38;;;;;;;6.23;4.70;;;12.30;99.90;;;;;;5092297;28;20178;-66
2023/09/04 01:39:05;;;;;;;8.90;4.93;;;12.30;99.90;;;;;;5091656;28;20636;-66
2023/09/04 01:41:30;;;;;;;8.97;4.30;;;12.20;99.90;;;;;;5092283;28;20177;-66
2023/09/04 01:43:56;;;;;;;8.77;4.60;;;12.10;99.90;;;;;;5092028;28;20197;-66
2023/09/04 01:46:22;;;;;;;7.63;4.40;;;12.00;99.90;;;;;;5092118;28;20530;-66
2023/09/04 01:48:49;;;;;;;8.60;4.10;;;12.00;99.90;;;;;;5091499;28;20199;-66
2023/09/04 01:51:15;;;;;;;6.60;4.10;;;12.00;99.90;;;;;;5091760;28;20692;-66
2023/09/04 01:53:42;;;;;;;7.73;4.43;;;12.00;99.90;;;;;;5091325;28;20188;-66
2023/09/04 01:56:08;;;;;;;6.27;4.53;;;12.00;99.90;;;;;;5092061;28;20202;-66
2023/09/04 01:58:33;;;;;;;7.13;4.10;;;12.00;99.90;;;;;;5091205;28;20217;-66
2023/09/04 02:00:59;;;;;;;7.93;4.90;;;11.90;99.90;;;;;;5091855;28;20629;-66
2023/09/04 02:03:24;;;;;;;8.20;4.87;;;11.90;99.90;;;;;;5092064;28;20189;-66
2023/09/04 02:05:50;;;;;;;8.23;4.80;;;11.80;99.90;;;;;;5091694;28;20654;-66
2023/09/04 02:08:15;;;;;;;16.57;5.63;;;11.80;99.90;;;;;;5091162;28;20241;-66
2023/09/04 02:10:41;;;;;;;19.87;5.57;;;11.70;99.90;;;;;;5091762;28;20216;-66
2023/09/04 02:13:07;;;;;;;12.53;5.27;;;11.70;99.90;;;;;;5091488;28;20182;-66
2023/09/04 02:15:35;;;;;;;12.67;5.20;;;11.60;99.90;;;;;;5091633;28;20711;-66
2023/09/04 02:18:03;;;;;;;14.27;6.20;;;11.60;99.90;;;;;;5091056;28;20185;-66
2023/09/04 02:20:30;;;;;;;8.60;5.80;;;11.60;99.90;;;;;;5091698;28;20181;-66
2023/09/04 02:22:56;;;;;;;12.57;5.63;;;11.60;99.90;;;;;;5091386;28;20545;-66
2023/09/04 02:25:21;;;;;;;11.23;5.57;;;11.60;99.90;;;;;;5091347;28;20201;-66
2023/09/04 02:27:47;;;;;;;15.17;6.77;;;11.60;99.90;;;;;;5090760;28;20280;-66
2023/09/04 02:30:13;;;;;;;11.93;5.90;;;11.60;99.90;;;;;;5073157;28;20261;-66
2023/09/04 02:32:38;;;;;;;12.60;6.23;;;11.60;99.90;;;;;;5091277;28;20252;-66
2023/09/04 02:35:05;;;;;;;8.97;5.73;;;11.60;99.90;;;;;;5091185;28;20221;-66
2023/09/04 02:37:31;;;;;;;10.63;5.90;;;11.70;99.90;;;;;;5090663;28;20177;-66
2023/09/04 02:39:56;;;;;;;24.33;7.60;;;11.70;99.90;;;;;;5091405;28;20189;-66
2023/09/04 02:42:22;;;;;;;12.67;5.83;;;11.70;99.90;;;;;;5073089;28;20197;-66
2023/09/04 02:44:47;;;;;;;13.37;5.13;;;11.70;99.90;;;;;;5090912;28;20185;-66
2023/09/04 02:47:13;;;;;;;13.10;5.53;;;11.70;99.90;;;;;;5090702;28;20239;-66
2023/09/04 02:49:38;;;;;;;11.30;5.40;;;11.60;99.90;;;;;;5073113;28;20213;-66
2023/09/04 02:52:04;;;;;;;10.73;5.37;;;11.60;99.90;;;;;;5091032;28;20177;-66
2023/09/04 02:54:30;;;;;;;12.40;5.20;;;11.50;99.90;;;;;;5090957;28;20202;-66
2023/09/04 02:56:55;;;;;;;7.17;5.07;;;11.50;99.90;;;;;;5090210;28;20195;-66
2023/09/04 02:59:21;;;;;;;11.90;5.00;;;11.50;99.90;;;;;;5090693;28;20190;-66
2023/09/04 03:01:49;;;;;;;9.53;5.07;;;11.50;99.90;;;;;;5090867;28;20193;-66
2023/09/04 03:04:16;;;;;;;11.67;5.20;;;11.50;99.90;;;;;;5090790;28;20194;-66
2023/09/04 03:06:42;;;;;;;12.27;5.60;;;11.50;99.90;;;;;;5090770;28;20260;-66
2023/09/04 03:09:07;;;;;;;13.27;5.10;;;11.50;99.90;;;;;;5090351;28;20313;-66
2023/09/04 03:11:33;;;;;;;11.63;5.50;;;11.50;99.90;;;;;;5091087;28;20536;-66
2023/09/04 03:13:59;;;;;;;10.03;5.63;;;11.50;99.90;;;;;;5090527;28;20273;-66
2023/09/04 03:16:26;;;;;;;8.93;4.77;;;11.40;99.90;;;;;;5090870;28;20529;-66
2023/09/04 03:18:52;;;;;;;12.17;4.77;;;11.40;99.90;;;;;;5090213;28;20297;-66
2023/09/04 03:21:18;;;;;;;9.77;4.40;;;11.40;99.90;;;;;;5090652;28;20694;-66
2023/09/04 03:23:46;;;;;;;12.47;5.07;;;11.40;99.90;;;;;;5090540;28;20186;-66
2023/09/04 03:26:11;;;;;;;11.77;5.23;;;11.30;99.90;;;;;;5090643;28;20178;-66
2023/09/04 03:28:37;;;;;;;12.07;4.97;;;11.30;99.90;;;;;;5089883;28;20247;-66
2023/09/04 03:31:02;;;;;;;8.67;5.07;;;11.30;99.90;;;;;;5090564;28;20182;-66
2023/09/04 03:33:28;;;;;;;27.20;4.93;;;11.30;99.90;;;;;;5090518;28;20182;-66
2023/09/04 03:35:56;;;;;;;6.57;4.57;;;11.30;99.90;;;;;;5090591;28;20239;-66
2023/09/04 03:38:21;;;;;;;10.57;5.00;;;11.30;99.90;;;;;;5072105;28;20181;-66
2023/09/04 03:40:47;;;;;;;6.30;4.60;;;11.30;99.90;;;;;;5090547;28;20201;-66
2023/09/04 03:43:12;;;;;;;10.80;4.53;;;11.20;99.90;;;;;;5090491;28;20186;-66
2023/09/04 03:45:38;;;;;;;14.17;4.90;;;11.20;99.90;;;;;;5090305;28;20201;-66
2023/09/04 03:48:04;;;;;;;8.37;4.50;;;11.20;99.90;;;;;;5089826;28;20279;-66
2023/09/04 03:50:29;;;;;;;7.37;4.50;;;11.20;99.90;;;;;;5090431;28;20181;-66
2023/09/04 03:52:55;;;;;;;8.17;5.10;;;11.20;99.90;;;;;;5090346;28;20182;-66
2023/09/04 03:55:21;;;;;;;12.70;4.70;;;11.30;99.90;;;;;;5090558;28;20279;-66
2023/09/04 03:57:48;;;;;;;11.43;5.03;;;11.30;99.90;;;;;;5089691;28;20174;-66
2023/09/04 04:00:16;;;;;;;6.43;4.37;;;11.30;99.90;;;;;;5090494;28;20264;-66
2023/09/04 04:02:42;;;;;;;11.87;4.87;;;11.30;99.90;;;;;;5090246;28;20193;-66
2023/09/04 04:05:10;;;;;;;12.03;4.80;;;11.20;99.90;;;;;;5090271;28;20273;-66
2023/09/04 04:07:36;;;;;;;25.20;5.87;;;11.30;99.90;;;;;;5087938;28;21006;-66
2023/09/04 04:10:02;;;;;;;48.87;4.97;;;11.20;99.90;;;;;;5090320;28;20213;-66
2023/09/04 04:12:28;;;;;;;34.40;4.57;;;11.10;99.90;;;;;;5090487;28;20178;-66
2023/09/04 04:14:57;;;;;;;14.63;4.27;;;11.10;99.90;;;;;;5090146;28;20678;-66
2023/09/04 04:17:24;;;;;;;30.37;5.67;;;11.10;99.90;;;;;;5093293;28;20174;-66
2023/09/04 04:19:53;;;;;;;62.03;5.50;;;11.00;99.90;;;;;;5075363;28;20189;-66
2023/09/04 04:22:20;;;;;;;10.60;3.93;;;11.00;99.90;;;;;;5075539;28;20821;-66
2023/09/04 04:24:46;;;;;;;4.23;3.40;;;10.90;99.90;;;;;;5093698;28;20651;-66
2023/09/04 04:27:12;;;;;;;13.97;4.40;;;10.90;99.90;;;;;;5093275;28;20311;-66
2023/09/04 04:29:38;;;;;;;43.30;5.90;;;11.00;99.90;;;;;;5093415;28;20637;-66
2023/09/04 04:32:07;;;;;;;7.00;3.90;;;10.90;99.90;;;;;;5093576;28;20235;-66
2023/09/04 04:34:33;;;;;;;18.90;4.17;;;10.90;99.90;;;;;;5093404;28;20202;-66
2023/09/04 04:36:59;;;;;;;22.97;4.73;;;10.90;99.90;;;;;;5093052;28;20185;-66
2023/09/04 04:39:25;;;;;;;13.47;4.70;;;10.90;99.90;;;;;;5093420;28;20257;-66
2023/09/04 04:41:51;;;;;;;10.73;4.00;;;10.80;99.90;;;;;;5093398;28;20221;-66
2023/09/04 04:44:17;;;;;;;57.63;7.63;;;10.80;99.90;;;;;;5074938;28;20213;-66
2023/09/04 04:46:42;;;;;;;10.53;4.47;;;10.70;99.90;;;;;;5093134;28;20643;-66
2023/09/04 04:49:09;;;;;;;14.23;4.70;;;10.80;99.90;;;;;;5092891;28;20220;-66
2023/09/04 04:51:34;;;;;;;16.63;4.37;;;10.80;99.90;;;;;;5093349;28;20210;-66
2023/09/04 04:54:00;;;;;;;20.97;5.30;;;10.80;99.90;;;;;;5091949;28;20217;-65
2023/09/04 04:56:26;;;;;;;9.53;5.00;;;10.90;99.90;;;;;;5092222;28;20231;-66
2023/09/04 04:58:52;;;;;;;5.10;4.00;;;10.80;99.90;;;;;;5091957;28;20190;-66
2023/09/04 05:01:18;;;;;;;24.27;5.43;;;10.80;99.90;;;;;;5102779;28;20702;-66
2023/09/04 05:03:43;;;;;;;5.87;3.83;;;10.90;99.90;;;;;;5112501;28;20185;-66
2023/09/04 05:06:09;;;;;;;8.90;3.93;;;10.90;99.90;;;;;;5094527;28;20555;-66
2023/09/04 05:08:34;;;;;;;7.20;3.63;;;10.90;99.90;;;;;;5093535;28;20568;-66
2023/09/04 05:11:02;;;;;;;4.90;3.80;;;10.90;99.90;;;;;;5112440;28;20177;-66
2023/09/04 05:13:29;;;;;;;22.63;4.70;;;10.90;99.90;;;;;;5112468;28;20202;-66
2023/09/04 05:15:54;;;;;;;5.90;3.77;;;10.90;99.90;;;;;;5112474;28;20623;-66
2023/09/04 05:18:20;;;;;;;28.43;4.10;;;10.90;99.90;;;;;;5111572;28;20184;-66
2023/09/04 05:20:46;;;;;;;8.33;4.17;;;10.90;99.90;;;;;;5093942;28;20177;-66
2023/09/04 05:23:11;;;;;;;15.40;4.47;;;11.00;99.90;;;;;;5112457;28;20191;-65
2023/09/04 05:25:37;;;;;;;5.00;3.73;;;11.00;99.90;;;;;;5110527;28;20201;-66
2023/09/04 05:28:03;;;;;;;7.37;3.97;;;11.00;99.90;;;;;;5111373;28;20205;-66
2023/09/04 05:30:28;;;;;;;25.17;4.60;;;11.10;99.90;;;;;;5112268;28;20190;-66
2023/09/04 05:32:54;;;;;;;6.53;3.50;;;11.00;99.90;;;;;;5112357;28;20638;-66
2023/09/04 05:35:20;;;;;;;5.07;3.60;;;11.00;99.90;;;;;;5111905;28;20211;-66
2023/09/04 05:37:45;;;;;;;8.00;3.83;;;11.00;99.90;;;;;;5111212;28;20203;-65
2023/09/04 05:40:11;;;;;;;10.03;4.10;;;11.10;99.90;;;;;;5093544;28;20512;-65
2023/09/04 05:42:37;;;;;;;7.43;4.03;;;11.20;99.90;;;;;;5111836;28;20598;-66
2023/09/04 05:45:03;;;;;;;5.23;3.40;;;11.30;99.90;;;;;;5111588;28;20205;-65
2023/09/04 05:47:28;;;;;;;11.83;4.10;;;11.40;99.90;;;;;;5101700;28;20235;-66
2023/09/04 05:49:54;;;;;;;5.97;3.50;;;11.40;99.90;;;;;;5091465;28;20173;-66
2023/09/04 05:52:20;;;;;;;7.73;4.50;;;11.40;99.90;;;;;;5091436;28;20190;-66
2023/09/04 05:54:45;;;;;;;6.50;4.20;;;11.50;99.90;;;;;;5091255;28;20620;-66
2023/09/04 05:57:11;;;;;;;6.43;4.00;;;11.50;99.90;;;;;;5098303;28;20204;-66
2023/09/04 05:59:36;;;;;;;12.00;4.20;;;11.60;99.90;;;;;;5111334;28;20346;-66
2023/09/04 06:02:02;;;;;;;10.20;4.30;;;11.70;99.90;;;;;;5111365;28;20185;-65
2023/09/04 06:04:27;;;;;;;9.33;4.40;;;11.70;99.90;;;;;;5111421;28;20209;-65
2023/09/04 06:06:53;;;;;;;15.97;4.10;;;11.70;99.90;;;;;;5110529;28;20185;-66
2023/09/04 06:09:19;;;;;;;5.50;3.60;;;11.80;99.90;;;;;;5111130;28;20546;-66
2023/09/04 06:11:44;;;;;;;7.23;4.10;;;11.90;99.90;;;;;;5111344;28;20264;-66
2023/09/04 06:14:10;;;;;;;6.93;3.90;;;12.00;99.90;;;;;;5111144;28;20193;-66
2023/09/04 06:16:36;;;;;;;7.37;4.17;;;12.10;99.90;;;;;;5093107;28;20250;-66
2023/09/04 06:19:02;;;;;;;7.63;4.40;;;12.20;99.90;;;;;;5092184;28;20193;-66
2023/09/04 06:21:27;;;;;;;13.00;4.27;;;12.30;99.90;;;;;;5111466;28;20177;-66
2023/09/04 06:23:53;;;;;;;13.20;4.37;;;12.30;99.90;;;;;;5111328;28;20226;-66
2023/09/04 06:26:19;;;;;;;6.73;4.20;;;12.40;99.90;;;;;;5109449;28;20595;-66
2023/09/04 06:28:44;;;;;;;5.23;3.70;;;12.70;99.90;;;;;;5110070;28;20682;-66
2023/09/04 06:31:10;;;;;;;6.33;3.90;;;12.80;99.90;;;;;;5110917;28;20179;-66
2023/09/04 06:33:37;;;;;;;8.73;3.83;;;12.70;99.90;;;;;;5110694;28;20181;-66
2023/09/04 06:36:04;;;;;;;6.00;4.20;;;12.90;99.90;;;;;;5111111;28;20238;-66
2023/09/04 06:38:30;;;;;;;10.33;4.23;;;13.10;99.90;;;;;;5091413;28;20225;-66
2023/09/04 06:40:58;;;;;;;10.20;4.03;;;13.30;99.90;;;;;;5092456;28;20177;-66
2023/09/04 06:43:25;;;;;;;5.37;3.67;;;13.30;99.90;;;;;;5110895;28;20184;-66
2023/09/04 06:45:50;;;;;;;18.20;3.80;;;13.40;99.90;;;;;;5110699;28;20205;-67
2023/09/04 06:48:16;;;;;;;5.40;3.70;;;13.50;99.90;;;;;;5109704;28;20682;-67
2023/09/04 06:50:41;;;;;;;7.57;3.90;;;14.10;99.90;;;;;;5110569;28;20230;-67
2023/09/04 06:53:07;;;;;;;9.67;3.70;;;14.10;99.90;;;;;;5110817;28;20229;-67
2023/09/04 06:55:32;;;;;;;6.50;3.50;;;14.50;99.90;;;;;;5110419;28;20193;-67
2023/09/04 06:57:58;;;;;;;18.17;9.50;;;14.70;99.90;;;;;;5109799;28;20189;-67
2023/09/04 07:00:23;;;;;;;9.27;4.70;;;15.20;99.90;;;;;;5110651;28;20181;-67
2023/09/04 07:02:49;;;;;;;6.50;3.47;;;15.50;99.90;;;;;;5110479;28;20188;-67
2023/09/04 07:05:15;;;;;;;4.87;2.90;;;15.80;99.90;;;;;;5110292;28;20700;-67
2023/09/04 07:07:41;;;;;;;9.20;3.17;;;16.30;99.90;;;;;;5109690;28;20636;-67
2023/09/04 07:10:07;;;;;;;6.30;3.33;;;16.90;99.90;;;;;;5110443;28;20752;-67
2023/09/04 07:12:36;;;;;;;4.73;2.73;;;17.10;99.90;;;;;;5110147;28;20177;-67
2023/09/04 07:15:02;;;;;;;4.87;2.70;;;17.60;99.90;;;;;;5110171;28;20204;-67
2023/09/04 07:17:27;;;;;;;5.50;2.70;;;18.00;99.90;;;;;;5109571;28;20173;-67
2023/09/04 07:19:53;;;;;;;4.83;2.80;;;18.20;99.90;;;;;;5110442;28;20238;-67
2023/09/04 07:22:19;;;;;;;8.53;2.57;;;18.70;99.90;;;;;;5110538;28;20192;-67
2023/09/04 07:24:45;;;;;;;4.60;2.83;;;19.10;99.90;;;;;;5110271;28;20250;-67
2023/09/04 07:27:10;;;;;;;4.60;2.57;;;19.50;99.90;;;;;;5108807;28;20252;-68
2023/09/04 07:29:36;;;;;;;5.30;2.43;;;19.80;99.90;;;;;;5109949;28;20189;-68
2023/09/04 07:32:02;;;;;;;6.20;2.63;;;20.00;99.90;;;;;;5110254;28;20208;-68
2023/09/04 07:34:28;;;;;;;5.90;2.70;;;20.20;99.90;;;;;;5110101;28;20284;-68
2023/09/04 07:36:54;;;;;;;6.90;2.67;;;20.60;99.90;;;;;;5109741;28;20219;-68
2023/09/04 07:39:20;;;;;;;5.70;2.50;;;21.00;99.90;;;;;;5110123;28;20662;-68
2023/09/04 07:41:45;;;;;;;6.93;2.60;;;21.30;99.90;;;;;;5110048;28;20264;-68
2023/09/04 07:44:11;;;;;;;7.73;2.97;;;21.60;99.90;;;;;;5109865;28;20701;-68
2023/09/04 07:46:37;;;;;;;7.63;2.60;;;22.20;99.90;;;;;;5109957;28;20175;-68
2023/09/04 07:49:02;;;;;;;6.83;2.73;;;22.50;99.90;;;;;;5109574;28;20280;-68
2023/09/04 07:51:28;;;;;;;9.87;2.90;;;22.80;99.90;;;;;;5112866;28;20266;-68
2023/09/04 07:53:53;;;;;;;4.33;2.27;;;22.70;99.90;;;;;;5113974;28;20204;-68
2023/09/04 07:56:20;;;;;;;14.37;2.90;;;23.10;99.90;;;;;;5113859;28;20667;-68
2023/09/04 07:58:46;;;;;;;6.67;2.80;;;23.60;99.90;;;;;;5113533;28;20261;-68
2023/09/04 08:01:13;;;;;;;6.87;2.50;;;24.30;99.90;;;;;;5113896;28;20179;-68
2023/09/04 08:03:40;;;;;;;6.47;2.63;;;25.00;99.90;;;;;;5113672;28;20177;-68
2023/09/04 08:06:05;;;;;;;9.17;2.67;;;25.40;99.90;;;;;;5113955;28;20291;-70
2023/09/04 08:08:31;;;;;;;11.77;2.50;;;25.40;99.90;;;;;;5112866;28;20583;-68
2023/09/04 08:10:56;;;;;;;6.33;2.30;;;25.90;99.90;;;;;;5113767;28;20783;-68
2023/09/04 08:13:22;;;;;;;8.43;2.30;;;26.10;99.90;;;;;;5095482;28;20177;-68
2023/09/04 08:15:48;;;;;;;9.17;2.67;;;26.00;99.90;;;;;;5113785;28;20284;-68
2023/09/04 08:18:13;;;;;;;11.63;2.23;;;26.20;99.90;;;;;;5112896;28;20180;-68
2023/09/04 08:20:39;;;;;;;6.70;2.30;;;26.70;99.90;;;;;;5113719;28;20189;-68
2023/09/04 08:23:12;;;;;;;4.77;2.00;;;27.30;99.90;;;;;;5113813;28;20178;-68
2023/09/04 08:25:38;;;;;;;6.40;2.23;;;27.90;99.90;;;;;;5112296;28;20640;-68
2023/09/04 08:28:04;;;;;;;8.17;2.37;;;28.10;99.90;;;;;;5112827;28;20204;-68
2023/09/04 08:30:30;;;;;;;4.93;2.10;;;28.00;99.90;;;;;;5113548;28;20542;-68
2023/09/04 08:32:56;;;;;;;5.60;1.93;;;28.20;99.90;;;;;;5113278;28;20185;-67
2023/09/04 08:35:21;;;;;;;3.83;1.73;;;28.00;99.90;;;;;;5113170;28;20300;-68
2023/09/04 08:37:47;;;;;;;7.07;2.10;;;27.30;99.90;;;;;;5112775;28;20189;-68
2023/09/04 08:40:13;;;;;;;3.57;1.57;;;26.70;99.90;;;;;;5113141;28;20178;-67
2023/09/04 08:42:40;;;;;;;4.60;1.90;;;26.40;99.90;;;;;;5112968;28;20177;-67
2023/09/04 08:45:09;;;;;;;4.77;2.33;;;26.40;99.90;;;;;;5112909;28;20206;-67
2023/09/04 08:47:41;;;;;;;3.83;2.07;;;26.40;99.90;;;;;;5111606;28;20278;-68
2023/09/04 08:50:07;;;;;;;6.57;1.63;;;27.10;99.90;;;;;;5112827;28;20154;-66
2023/09/04 08:52:35;;;;;;;5.47;1.60;;;27.50;99.90;;;;;;5112831;28;20214;-65
2023/09/04 08:55:01;;;;;;;4.07;1.80;;;27.90;99.90;;;;;;5112578;28;20663;-65
2023/09/04 08:57:29;;;;;;;2.37;1.60;;;27.70;99.90;;;;;;5112198;28;20178;-65
2023/09/04 08:59:54;;;;;;;4.47;1.87;;;28.00;99.90;;;;;;5112867;28;20183;-65
2023/09/04 09:02:20;;;;;;;2.63;1.73;;;28.60;99.90;;;;;;5093955;28;20186;-66
2023/09/04 09:04:47;;;;;;;3.83;1.93;;;28.30;99.90;;;;;;5112488;28;20199;-65
2023/09/04 09:07:14;;;;;;;4.10;1.83;;;27.80;99.90;;;;;;5112112;28;20201;-66
2023/09/04 09:09:46;;;;;;;3.27;1.77;;;27.90;99.90;;;;;;5112311;28;20299;-65
2023/09/04 09:12:12;;;;;;;3.10;1.60;;;27.40;99.90;;;;;;5112458;28;20250;-65
2023/09/04 09:14:37;;;;;;;2.83;1.80;;;27.10;99.90;;;;;;5112001;28;20385;-66
2023/09/04 09:17:08;;;;;;;2.57;1.63;;;27.30;99.90;;;;;;5111919;28;20185;-65
2023/09/04 09:19:38;;;;;;;13.90;1.73;;;27.50;99.90;;;;;;5111932;28;20230;-65
2023/09/04 09:22:14;;;;;;;4.90;1.70;;;26.70;99.90;;;;;;5112085;28;20230;-65
2023/09/04 09:25:00;;;;;;;2.63;1.80;;;26.90;99.90;;;;;;5112049;28;20273;-65
2023/09/04 09:27:28;;;;;;;2.90;1.70;;;26.70;99.90;;;;;;5111589;28;20205;-65
2023/09/04 09:30:00;;;;;;;3.10;1.60;;;26.40;99.90;;;;;;5111797;28;20193;-66
2023/09/04 09:32:28;;;;;;;4.77;1.67;;;27.00;99.90;;;;;;5112704;28;20181;-68
2023/09/04 09:34:56;;;;;;;2.97;1.70;;;27.10;99.90;;;;;;5112356;28;20193;-68
2023/09/04 09:37:24;;;;;;;5.90;1.60;;;27.70;99.90;;;;;;5111295;28;20229;-68
2023/09/04 09:39:50;;;;;;;2.80;1.70;;;28.00;99.90;;;;;;5110852;28;20178;-68
2023/09/04 09:42:16;;;;;;;3.57;1.50;;;28.10;99.90;;;;;;5112035;28;20215;-68
2023/09/04 09:44:41;;;;;;;4.33;1.50;;;28.40;99.90;;;;;;5111696;28;20237;-68
2023/09/04 09:47:10;;;;;;;2.93;1.70;;;29.00;99.90;;;;;;5110632;28;20414;-70
2023/09/04 09:49:36;;;;;;;3.77;1.40;;;29.30;99.90;;;;;;5111514;28;20266;-67
2023/09/04 09:52:06;;;;;;;2.97;1.60;;;29.60;99.90;;;;;;5111540;28;20229;-66
2023/09/04 09:54:40;;;;;;;2.70;1.93;;;30.10;99.90;;;;;;5111619;28;20301;-67
2023/09/04 09:57:11;;;;;;;27.07;13.17;;;30.30;99.90;;;;;;5110822;28;20244;-65
2023/09/04 09:59:44;;;;;;;7.37;4.80;;;30.20;99.90;;;;;;5111204;28;20174;-64
2023/09/04 10:02:17;;;;;;;4.13;1.97;;;30.50;99.90;;;;;;5111299;28;20641;-68
2023/09/04 10:04:44;;;;;;;3.50;1.50;;;30.40;99.90;;;;;;5111317;28;20244;-69
2023/09/04 10:07:12;;;;;;;1.87;1.10;;;31.00;99.90;;;;;;5110411;28;20181;-66
2023/09/04 10:09:43;;;;;;;3.23;1.30;;;30.80;99.90;;;;;;5111183;28;20193;-67
2023/09/04 10:12:19;;;;;;;2.03;1.17;;;30.40;99.90;;;;;;5111242;28;20203;-67
2023/09/04 10:14:46;;;;;;;2.90;1.70;;;29.90;99.90;;;;;;5110519;28;20185;-67
2023/09/04 10:17:40;;;;;;;3.23;1.20;;;30.00;99.90;;;;;;5110489;28;20180;-67
2023/09/04 10:20:06;;;;;;;4.87;1.57;;;30.30;99.90;;;;;;5111034;28;20154;-67
2023/09/04 10:23:02;;;;;;;2.63;1.50;;;30.20;99.90;;;;;;5109801;28;20196;-67
2023/09/04 10:26:02;;;;;;;2.90;1.50;;;29.60;99.90;;;;;;5081866;28;20224;-67
2023/09/04 10:28:45;;;;;;;9.43;2.20;;;29.00;99.90;;;;;;5078579;28;20217;-67
2023/09/04 10:31:10;;;;;;;2.80;1.20;;;28.80;99.90;;;;;;5111166;28;20248;-67
2023/09/04 10:33:37;;;;;;;6.37;1.50;;;29.00;99.90;;;;;;5111064;28;20265;-67
2023/09/04 10:36:04;;;;;;;2.33;1.40;;;29.40;99.90;;;;;;5110940;28;20184;-67
2023/09/04 10:38:30;;;;;;;2.67;1.30;;;29.50;99.90;;;;;;5110022;28;20655;-68
2023/09/04 10:40:56;;;;;;;2.47;1.30;;;30.00;99.90;;;;;;5110754;28;20218;-68
2023/09/04 10:43:22;;;;;;;5.33;1.40;;;30.00;99.90;;;;;;5110680;28;20185;-67
2023/09/04 10:46:04;;;;;;;6.93;1.43;;;29.00;99.90;;;;;;5092730;28;20209;-67
2023/09/04 10:48:50;;;;;;;2.43;1.43;;;29.30;99.90;;;;;;5110512;28;20212;-68
2023/09/04 10:51:28;;;;;;;2.60;1.40;;;29.80;99.90;;;;;;5110518;28;20204;-67
2023/09/04 10:53:59;;;;;;;2.83;1.50;;;30.10;99.90;;;;;;5109791;28;20685;-69
2023/09/04 10:56:25;;;;;;;10.93;5.03;;;30.20;99.90;;;;;;5110533;28;20243;-67
2023/09/04 10:59:06;;;;;;;2.77;1.57;;;30.30;99.90;;;;;;5109802;28;20787;-67
2023/09/04 11:01:36;;;;;;;10.43;5.03;;;29.70;99.90;;;;;;5110504;28;20187;-68
2023/09/04 11:04:07;;;;;;;3.73;1.40;;;29.60;99.90;;;;;;5110293;28;20243;-67
2023/09/04 11:06:40;;;;;;;1.90;1.13;;;28.90;99.90;;;;;;5110228;28;20529;-67
2023/09/04 11:09:11;;;;;;;4.10;1.47;;;29.00;99.90;;;;;;5109970;28;20208;-68
2023/09/04 11:11:38;;;;;;;3.10;1.43;;;28.70;99.90;;;;;;5111385;28;20217;-68
2023/09/04 11:14:09;;;;;;;6.40;1.60;;;29.10;99.90;;;;;;5110340;28;20189;-67
2023/09/04 11:16:44;;;;;;;3.00;1.57;;;29.00;99.90;;;;;;5109349;28;20177;-67
2023/09/04 11:19:18;;;;;;;4.67;1.47;;;29.00;99.90;;;;;;5110353;28;20455;-67
2023/09/04 11:21:45;;;;;;;2.17;1.50;;;28.90;99.90;;;;;;5110323;28;20189;-67
2023/09/04 11:24:10;;;;;;;3.10;1.40;;;28.60;99.90;;;;;;5092511;28;20203;-67
2023/09/04 11:26:37;;;;;;;2.20;1.43;;;28.60;99.90;;;;;;5114484;28;20188;-67
2023/09/04 11:29:05;;;;;;;2.40;1.50;;;28.30;99.90;;;;;;5095603;28;20242;-67
2023/09/04 11:31:32;;;;;;;1.93;1.30;;;28.40;99.90;;;;;;5114072;28;20206;-67
2023/09/04 11:33:58;;;;;;;4.10;1.23;;;28.30;99.90;;;;;;5114275;28;20199;-67
2023/09/04 11:36:25;;;;;;;2.27;1.40;;;28.20;99.90;;;;;;5114217;28;20180;-67
2023/09/04 11:39:06;;;;;;;3.60;1.50;;;28.20;99.90;;;;;;5113727;28;20589;-67
2023/09/04 11:41:31;;;;;;;3.23;1.30;;;28.30;99.90;;;;;;5114229;28;20232;-67
2023/09/04 11:43:57;;;;;;;2.97;1.70;;;28.40;99.90;;;;;;5114475;28;20204;-67
2023/09/04 11:46:23;;;;;;;2.40;1.30;;;28.50;99.90;;;;;;5114286;28;20235;-67
2023/09/04 11:48:48;;;;;;;2.30;1.57;;;28.70;99.90;;;;;;5095206;28;20218;-67
2023/09/04 11:51:14;;;;;;;2.00;1.40;;;28.50;99.90;;;;;;5114256;28;20179;-67
2023/09/04 11:53:40;;;;;;;1.80;1.47;;;28.30;99.90;;;;;;5095592;28;20180;-67
2023/09/04 11:56:06;;;;;;;2.00;1.40;;;28.70;99.90;;;;;;5113765;28;20278;-67
2023/09/04 11:58:33;;;;;;;2.93;1.60;;;28.80;99.90;;;;;;5113300;28;20188;-67
2023/09/04 12:00:59;;;;;;;3.87;1.47;;;29.00;99.90;;;;;;5113742;28;20183;-67
2023/09/04 12:03:24;;;;;;;3.27;1.30;;;28.80;99.90;;;;;;5113605;28;20184;-67
2023/09/04 12:05:51;;;;;;;3.03;1.50;;;28.70;99.90;;;;;;5113937;28;20213;-67
2023/09/04 12:08:18;;;;;;;2.37;1.50;;;28.60;99.90;;;;;;5113205;28;20213;-67
2023/09/04 12:10:43;;;;;;;3.50;1.40;;;28.30;99.90;;;;;;5113839;28;20187;-67
2023/09/04 12:13:11;;;;;;;2.37;1.47;;;28.40;99.90;;;;;;5113575;28;20567;-67
2023/09/04 12:15:38;;;;;;;3.87;1.40;;;28.40;99.90;;;;;;5113412;28;20680;-67
2023/09/04 12:18:05;;;;;;;4.03;1.60;;;28.30;99.90;;;;;;5112635;28;20192;-67
2023/09/04 12:20:39;;;;;;;3.60;1.50;;;28.50;99.90;;;;;;5113674;28;20539;-67
2023/09/04 12:23:05;;;;;;;2.77;1.60;;;28.40;99.90;;;;;;5113754;28;20166;-67
2023/09/04 12:25:36;;;;;;;2.47;1.37;;;28.50;99.90;;;;;;5113570;28;20205;-67
2023/09/04 12:28:04;;;;;;;5.07;1.80;;;28.30;99.90;;;;;;5112913;28;20568;-67
2023/09/04 12:30:29;;;;;;;2.70;1.33;;;28.30;99.90;;;;;;5113597;28;20201;-67
2023/09/04 12:32:58;;;;;;;3.93;1.60;;;28.50;99.90;;;;;;5113896;28;20225;-67
2023/09/04 12:35:23;;;;;;;2.13;1.57;;;28.70;99.90;;;;;;5113020;28;20256;-67
2023/09/04 12:37:53;;;;;;;3.70;1.50;;;28.90;99.90;;;;;;5111561;28;20676;-67
2023/09/04 12:40:19;;;;;;;2.23;1.40;;;29.00;99.90;;;;;;5113319;28;20557;-67
2023/09/04 12:42:44;;;;;;;2.17;1.60;;;28.90;99.90;;;;;;5113025;28;20174;-67